sensor_id;sensor_type;location;lat;lon;timestamp;P1;durP1;ratioP1;P2;durP2;ratioP2
69706;SDS011;56975;55.726;37.566;2023-10-31T00:05:00;5.9;;;3.2;;
69706;SDS011;56975;55.726;37.566;2023-10-31T00:10:00;8.4;;;3.3;;
69706;SDS011;56975;55.726;37.566;2023-10-31T00:20:00;7.5;;;3.6;;
69706;SDS011;56975;55.726;37.566;2023-10-31T00:25:00;4.3;;;2.8;;
69706;SDS011;56975;55.726;37.566;2023-10-31T00:35:00;3.2;;;2.3;;
69706;SDS011;56975;55.726;37.566;2023-10-31T00:40:00;5.8;;;3.0;;
69706;SDS011;56975;55.726;37.566;2023-10-31T00:50:00;4.6;;;2.9;;
69706;SDS011;56975;55.726;37.566;2023-10-31T00:55:00;10.3;;;6.3;;
69706;SDS011;56975;55.726;37.566;2023-10-31T01:10:00;7.8;;;3.7;;
69706;SDS011;56975;55.726;37.566;2023-10-31T01:15:01;6.4;;;3.4;;
69706;SDS011;56975;55.726;37.566;2023-10-31T01:25:00;5.9;;;2.9;;
69706;SDS011;56975;55.726;37.566;2023-10-31T01:30:00;6.2;;;3.0;;
69706;SDS011;56975;55.726;37.566;2023-10-31T01:40:00;5.9;;;2.9;;
69706;SDS011;56975;55.726;37.566;2023-10-31T01:45:00;6.0;;;3.0;;
69706;SDS011;56975;55.726;37.566;2023-10-31T01:55:00;5.2;;;3.1;;
69706;SDS011;56975;55.726;37.566;2023-10-31T02:10:00;6.6;;;3.1;;
69706;SDS011;56975;55.726;37.566;2023-10-31T02:15:00;7.7;;;3.8;;
69706;SDS011;56975;55.726;37.566;2023-10-31T02:25:00;4.0;;;3.1;;
69706;SDS011;56975;55.726;37.566;2023-10-31T02:30:00;7.0;;;3.2;;
69706;SDS011;56975;55.726;37.566;2023-10-31T02:40:00;5.9;;;3.4;;
69706;SDS011;56975;55.726;37.566;2023-10-31T02:45:00;7.4;;;3.6;;
69706;SDS011;56975;55.726;37.566;2023-10-31T02:55:00;7.5;;;3.9;;
69706;SDS011;56975;55.726;37.566;2023-10-31T03:00:00;6.5;;;3.6;;
69706;SDS011;56975;55.726;37.566;2023-10-31T03:10:00;7.4;;;4.0;;
69706;SDS011;56975;55.726;37.566;2023-10-31T03:25:00;7.7;;;3.3;;
69706;SDS011;56975;55.726;37.566;2023-10-31T03:30:00;8.4;;;3.4;;
69706;SDS011;56975;55.726;37.566;2023-10-31T03:40:00;7.2;;;3.6;;
69706;SDS011;56975;55.726;37.566;2023-10-31T03:45:00;11.1;;;4.0;;
69706;SDS011;56975;55.726;37.566;2023-10-31T03:55:00;6.3;;;4.0;;
69706;SDS011;56975;55.726;37.566;2023-10-31T04:00:00;6.5;;;4.2;;
69706;SDS011;56975;55.726;37.566;2023-10-31T04:15:00;6.9;;;4.5;;
69706;SDS011;56975;55.726;37.566;2023-10-31T04:25:00;12.5;;;4.7;;
69706;SDS011;56975;55.726;37.566;2023-10-31T04:30:00;8.1;;;4.8;;
69706;SDS011;56975;55.726;37.566;2023-10-31T04:40:00;7.6;;;4.6;;
69706;SDS011;56975;55.726;37.566;2023-10-31T04:45:00;7.6;;;4.5;;
69706;SDS011;56975;55.726;37.566;2023-10-31T04:55:00;8.4;;;4.6;;
69706;SDS011;56975;55.726;37.566;2023-10-31T05:00:00;7.2;;;4.5;;
69706;SDS011;56975;55.726;37.566;2023-10-31T05:10:00;6.1;;;4.4;;
69706;SDS011;56975;55.726;37.566;2023-10-31T05:15:00;7.6;;;4.5;;
69706;SDS011;56975;55.726;37.566;2023-10-31T05:25:00;10.5;;;5.3;;
69706;SDS011;56975;55.726;37.566;2023-10-31T05:30:00;8.4;;;5.3;;
69706;SDS011;56975;55.726;37.566;2023-10-31T05:40:00;9.9;;;5.6;;
69706;SDS011;56975;55.726;37.566;2023-10-31T05:45:00;12.4;;;6.6;;
69706;SDS011;56975;55.726;37.566;2023-10-31T05:55:00;12.0;;;6.9;;
69706;SDS011;56975;55.726;37.566;2023-10-31T06:00:00;12.4;;;6.5;;
69706;SDS011;56975;55.726;37.566;2023-10-31T06:10:00;13.1;;;7.7;;
69706;SDS011;56975;55.726;37.566;2023-10-31T06:15:00;16.3;;;7.8;;
69706;SDS011;56975;55.726;37.566;2023-10-31T06:25:00;12.1;;;7.9;;
69706;SDS011;56975;55.726;37.566;2023-10-31T06:30:00;14.8;;;8.7;;
69706;SDS011;56975;55.726;37.566;2023-10-31T06:40:00;11.5;;;7.7;;
69706;SDS011;56975;55.726;37.566;2023-10-31T06:45:00;14.0;;;8.1;;
69706;SDS011;56975;55.726;37.566;2023-10-31T06:55:00;14.4;;;8.3;;
69706;SDS011;56975;55.726;37.566;2023-10-31T07:00:00;12.3;;;7.9;;
69706;SDS011;56975;55.726;37.566;2023-10-31T07:30:00;13.4;;;7.8;;
69706;SDS011;56975;55.726;37.566;2023-10-31T07:35:00;14.0;;;8.7;;
69706;SDS011;56975;55.726;37.566;2023-10-31T07:45:00;12.9;;;8.4;;
69706;SDS011;56975;55.726;37.566;2023-10-31T07:50:00;13.8;;;9.0;;
69706;SDS011;56975;55.726;37.566;2023-10-31T08:00:00;15.9;;;9.8;;
69706;SDS011;56975;55.726;37.566;2023-10-31T08:15:00;13.5;;;9.1;;
69706;SDS011;56975;55.726;37.566;2023-10-31T08:20:00;14.2;;;10.2;;
69706;SDS011;56975;55.726;37.566;2023-10-31T08:30:00;16.4;;;9.3;;
69706;SDS011;56975;55.726;37.566;2023-10-31T08:35:00;12.3;;;9.1;;
69706;SDS011;56975;55.726;37.566;2023-10-31T09:10:00;10.4;;;7.5;;
69706;SDS011;56975;55.726;37.566;2023-10-31T09:15:00;14.2;;;7.6;;
69706;SDS011;56975;55.726;37.566;2023-10-31T09:25:00;14.5;;;8.6;;
69706;SDS011;56975;55.726;37.566;2023-10-31T09:30:00;13.4;;;7.9;;
69706;SDS011;56975;55.726;37.566;2023-10-31T09:40:00;9.1;;;7.1;;
69706;SDS011;56975;55.726;37.566;2023-10-31T09:45:00;13.0;;;7.1;;
69706;SDS011;56975;55.726;37.566;2023-10-31T09:55:00;11.1;;;7.3;;
69706;SDS011;56975;55.726;37.566;2023-10-31T10:00:00;11.1;;;6.4;;
69706;SDS011;56975;55.726;37.566;2023-10-31T10:25:00;10.8;;;5.5;;
69706;SDS011;56975;55.726;37.566;2023-10-31T10:30:00;11.8;;;7.0;;
69706;SDS011;56975;55.726;37.566;2023-10-31T10:40:00;12.5;;;6.8;;
69706;SDS011;56975;55.726;37.566;2023-10-31T10:45:01;14.0;;;8.1;;
69706;SDS011;56975;55.726;37.566;2023-10-31T10:55:01;16.7;;;7.6;;
69706;SDS011;56975;55.726;37.566;2023-10-31T11:00:02;14.9;;;7.8;;
69706;SDS011;56975;55.726;37.566;2023-10-31T11:20:00;16.1;;;7.8;;
69706;SDS011;56975;55.726;37.566;2023-10-31T11:30:00;12.6;;;8.3;;
69706;SDS011;56975;55.726;37.566;2023-10-31T12:00:00;14.9;;;7.0;;
69706;SDS011;56975;55.726;37.566;2023-10-31T12:05:08;13.7;;;6.6;;
69706;SDS011;56975;55.726;37.566;2023-10-31T12:15:04;20.1;;;10.3;;
69706;SDS011;56975;55.726;37.566;2023-10-31T12:20:03;13.4;;;9.6;;
69706;SDS011;56975;55.726;37.566;2023-10-31T12:35:00;20.0;;;9.6;;
69706;SDS011;56975;55.726;37.566;2023-10-31T12:45:00;18.7;;;10.6;;
69706;SDS011;56975;55.726;37.566;2023-10-31T12:50:08;15.6;;;9.9;;
69706;SDS011;56975;55.726;37.566;2023-10-31T13:00:00;15.9;;;10.3;;
69706;SDS011;56975;55.726;37.566;2023-10-31T13:05:07;19.7;;;11.6;;
69706;SDS011;56975;55.726;37.566;2023-10-31T13:15:00;18.9;;;12.6;;
69706;SDS011;56975;55.726;37.566;2023-10-31T13:20:00;24.8;;;13.5;;
69706;SDS011;56975;55.726;37.566;2023-10-31T13:30:00;23.2;;;14.5;;
69706;SDS011;56975;55.726;37.566;2023-10-31T13:35:00;22.5;;;14.1;;
69706;SDS011;56975;55.726;37.566;2023-10-31T13:45:00;23.8;;;15.5;;
69706;SDS011;56975;55.726;37.566;2023-10-31T13:50:00;23.7;;;15.3;;
69706;SDS011;56975;55.726;37.566;2023-10-31T14:00:00;27.5;;;18.5;;
69706;SDS011;56975;55.726;37.566;2023-10-31T14:05:00;25.9;;;16.2;;
69706;SDS011;56975;55.726;37.566;2023-10-31T14:15:00;28.3;;;15.2;;
69706;SDS011;56975;55.726;37.566;2023-10-31T14:20:00;22.7;;;15.2;;
69706;SDS011;56975;55.726;37.566;2023-10-31T14:30:00;25.1;;;15.2;;
69706;SDS011;56975;55.726;37.566;2023-10-31T14:35:00;24.9;;;14.6;;
69706;SDS011;56975;55.726;37.566;2023-10-31T14:45:00;31.6;;;15.3;;
69706;SDS011;56975;55.726;37.566;2023-10-31T14:50:00;33.2;;;16.3;;
69706;SDS011;56975;55.726;37.566;2023-10-31T15:05:00;38.2;;;19.0;;
69706;SDS011;56975;55.726;37.566;2023-10-31T15:15:00;31.2;;;16.6;;
69706;SDS011;56975;55.726;37.566;2023-10-31T15:20:00;38.7;;;18.2;;
69706;SDS011;56975;55.726;37.566;2023-10-31T15:35:00;45.0;;;20.6;;
69706;SDS011;56975;55.726;37.566;2023-10-31T15:40:00;49.2;;;20.0;;
69706;SDS011;56975;55.726;37.566;2023-10-31T15:50:00;68.5;;;26.0;;
69706;SDS011;56975;55.726;37.566;2023-10-31T15:55:00;65.9;;;24.9;;
69706;SDS011;56975;55.726;37.566;2023-10-31T16:05:00;58.6;;;23.0;;
69706;SDS011;56975;55.726;37.566;2023-10-31T16:10:00;55.8;;;22.9;;
69706;SDS011;56975;55.726;37.566;2023-10-31T16:20:00;54.4;;;23.6;;
69706;SDS011;56975;55.726;37.566;2023-10-31T16:25:00;51.7;;;21.9;;
69706;SDS011;56975;55.726;37.566;2023-10-31T16:40:00;54.6;;;22.6;;
69706;SDS011;56975;55.726;37.566;2023-10-31T16:55:01;51.8;;;22.2;;
69706;SDS011;56975;55.726;37.566;2023-10-31T17:15:00;43.8;;;20.2;;
69706;SDS011;56975;55.726;37.566;2023-10-31T17:25:00;51.7;;;18.7;;
69706;SDS011;56975;55.726;37.566;2023-10-31T17:30:00;43.7;;;20.0;;
69706;SDS011;56975;55.726;37.566;2023-10-31T17:45:00;69.1;;;24.1;;
69706;SDS011;56975;55.726;37.566;2023-10-31T17:55:00;61.2;;;24.8;;
69706;SDS011;56975;55.726;37.566;2023-10-31T18:00:00;52.0;;;24.1;;
69706;SDS011;56975;55.726;37.566;2023-10-31T18:10:00;57.9;;;25.6;;
69706;SDS011;56975;55.726;37.566;2023-10-31T18:15:00;56.8;;;25.6;;
69706;SDS011;56975;55.726;37.566;2023-10-31T18:25:00;59.8;;;26.3;;
69706;SDS011;56975;55.726;37.566;2023-10-31T18:30:00;57.5;;;25.1;;
69706;SDS011;56975;55.726;37.566;2023-10-31T18:40:00;57.6;;;26.8;;
69706;SDS011;56975;55.726;37.566;2023-10-31T18:45:00;61.1;;;28.7;;
69706;SDS011;56975;55.726;37.566;2023-10-31T19:00:00;65.0;;;32.7;;
69706;SDS011;56975;55.726;37.566;2023-10-31T19:10:00;55.3;;;29.2;;
69706;SDS011;56975;55.726;37.566;2023-10-31T19:25:00;57.4;;;28.0;;
69706;SDS011;56975;55.726;37.566;2023-10-31T19:30:00;53.2;;;26.7;;
69706;SDS011;56975;55.726;37.566;2023-10-31T19:40:00;50.7;;;24.9;;
69706;SDS011;56975;55.726;37.566;2023-10-31T19:45:00;44.1;;;24.8;;
69706;SDS011;56975;55.726;37.566;2023-10-31T19:55:00;45.9;;;24.1;;
69706;SDS011;56975;55.726;37.566;2023-10-31T20:00:00;45.9;;;24.7;;
69706;SDS011;56975;55.726;37.566;2023-10-31T20:10:00;38.7;;;21.5;;
69706;SDS011;56975;55.726;37.566;2023-10-31T20:15:00;41.5;;;23.3;;
69706;SDS011;56975;55.726;37.566;2023-10-31T20:25:00;41.7;;;19.8;;
69706;SDS011;56975;55.726;37.566;2023-10-31T20:30:00;55.7;;;28.5;;
69706;SDS011;56975;55.726;37.566;2023-10-31T20:40:00;44.6;;;20.5;;
69706;SDS011;56975;55.726;37.566;2023-10-31T20:45:00;45.1;;;23.4;;
69706;SDS011;56975;55.726;37.566;2023-10-31T21:00:00;38.2;;;21.2;;
69706;SDS011;56975;55.726;37.566;2023-10-31T21:05:00;31.6;;;19.7;;
69706;SDS011;56975;55.726;37.566;2023-10-31T21:15:00;31.1;;;19.7;;
69706;SDS011;56975;55.726;37.566;2023-10-31T21:20:00;28.5;;;17.1;;
69706;SDS011;56975;55.726;37.566;2023-10-31T21:30:00;33.4;;;17.0;;
69706;SDS011;56975;55.726;37.566;2023-10-31T21:35:00;37.9;;;22.4;;
69706;SDS011;56975;55.726;37.566;2023-10-31T21:45:00;27.2;;;15.2;;
69706;SDS011;56975;55.726;37.566;2023-10-31T21:50:00;25.2;;;15.3;;
69706;SDS011;56975;55.726;37.566;2023-10-31T22:00:00;27.0;;;15.9;;
69706;SDS011;56975;55.726;37.566;2023-10-31T22:05:00;29.5;;;14.3;;
69706;SDS011;56975;55.726;37.566;2023-10-31T22:15:00;26.5;;;16.5;;
69706;SDS011;56975;55.726;37.566;2023-10-31T22:20:00;29.1;;;15.1;;
69706;SDS011;56975;55.726;37.566;2023-10-31T22:30:00;25.8;;;14.8;;
69706;SDS011;56975;55.726;37.566;2023-10-31T22:35:00;26.7;;;14.7;;
69706;SDS011;56975;55.726;37.566;2023-10-31T22:50:00;27.4;;;13.7;;
69706;SDS011;56975;55.726;37.566;2023-10-31T22:55:00;24.5;;;13.9;;
69706;SDS011;56975;55.726;37.566;2023-10-31T23:10:00;22.1;;;12.8;;
69706;SDS011;56975;55.726;37.566;2023-10-31T23:15:00;27.2;;;13.2;;
69706;SDS011;56975;55.726;37.566;2023-10-31T23:35:00;18.4;;;10.5;;
69706;SDS011;56975;55.726;37.566;2023-10-31T23:45:00;21.6;;;12.5;;
69706;SDS011;56975;55.726;37.566;2023-10-31T23:50:00;18.1;;;10.7;;
